Time;durP1;ratioP1;P1;durP2;ratioP2;P2;SDS_P1;SDS_P2;PMS_P1;PMS_P2;Temp;Humidity;BMP_temperature;BMP_pressure;BME280_temperature;BME280_humidity;BME280_pressure;Samples;Min_cycle;Max_cycle;Signal;HPM_P1;HPM_P2
2022/03/06 00:02:12;;;;;;;15.50;9.27;;;;;;;;;;5043543;28;20532;-87
2022/03/06 00:05:16;;;;;;;18.60;10.13;;;;;;;;;;5043596;28;20649;-86
2022/03/06 00:08:20;;;;;;;16.37;9.87;;;;;;;;;;5043111;28;20617;-86
2022/03/06 00:11:25;;;;;;;18.37;10.23;;;;;;;;;;5023427;28;20544;-87
2022/03/06 00:14:29;;;;;;;19.27;10.57;;;;;;;;;;5012250;28;20630;-86
2022/03/06 00:17:33;;;;;;;17.30;10.27;;;;;;;;;;5016567;28;21171;-86
2022/03/06 00:20:37;;;;;;;18.13;10.27;;;;;;;;;;5054112;28;21166;-87
2022/03/06 00:23:41;;;;;;;17.30;10.17;;;;;;;;;;5055136;28;20598;-86
2022/03/06 00:26:45;;;;;;;17.50;10.07;;;;;;;;;;5054481;28;20917;-87
2022/03/06 00:29:50;;;;;;;21.80;10.70;;;;;;;;;;5023633;28;20547;-87
2022/03/06 00:32:56;;;;;;;19.30;9.77;;;;;;;;;;5011540;28;20602;-87
2022/03/06 00:36:06;;;;;;;17.13;9.87;;;;;;;;;;5032769;28;20662;-86
2022/03/06 00:39:16;;;;;;;16.07;9.47;;;;;;;;;;5053897;28;20590;-86
2022/03/06 00:42:20;;;;;;;19.57;10.03;;;;;;;;;;5042393;28;20605;-87
2022/03/06 00:45:25;;;;;;;16.70;8.97;;;;;;;;;;5086219;23;20684;-87
2022/03/06 00:48:29;;;;;;;20.00;10.33;;;;;;;;;;5039992;28;20586;-86
2022/03/06 00:51:33;;;;;;;19.63;10.83;;;;;;;;;;5062697;28;20553;-86
2022/03/06 00:54:37;;;;;;;16.17;9.77;;;;;;;;;;5051154;28;20676;-86
2022/03/06 00:57:41;;;;;;;18.27;10.00;;;;;;;;;;5061575;28;20589;-87
2022/03/06 01:00:47;;;;;;;17.57;10.47;;;;;;;;;;5050366;28;20604;-86
2022/03/06 01:03:52;;;;;;;17.53;9.73;;;;;;;;;;5036301;28;20637;-86
2022/03/06 01:06:56;;;;;;;19.73;10.67;;;;;;;;;;5031099;28;20607;-86
2022/03/06 01:10:00;;;;;;;19.63;11.23;;;;;;;;;;5035795;28;20629;-87
2022/03/06 01:13:06;;;;;;;20.57;10.30;;;;;;;;;;5031223;28;21190;-86
2022/03/06 01:16:09;;;;;;;19.40;10.87;;;;;;;;;;5031012;28;20676;-86
2022/03/06 01:19:13;;;;;;;18.03;10.03;;;;;;;;;;5019997;28;20590;-86
2022/03/06 01:22:18;;;;;;;19.80;10.47;;;;;;;;;;5019771;28;20953;-87
2022/03/06 01:25:22;;;;;;;16.97;10.17;;;;;;;;;;5019674;28;20625;-86
2022/03/06 01:28:26;;;;;;;16.83;10.27;;;;;;;;;;5019703;28;20550;-87
2022/03/06 01:31:30;;;;;;;18.67;10.33;;;;;;;;;;5019742;28;21104;-87
2022/03/06 01:34:34;;;;;;;21.00;10.63;;;;;;;;;;5018780;28;20677;-86
2022/03/06 01:37:38;;;;;;;22.23;11.77;;;;;;;;;;5030732;28;20913;-86
2022/03/06 01:40:42;;;;;;;18.43;10.43;;;;;;;;;;5019284;28;21092;-87
2022/03/06 01:43:46;;;;;;;19.23;11.27;;;;;;;;;;5029816;28;20550;-88
2022/03/06 01:46:51;;;;;;;18.70;10.33;;;;;;;;;;5019733;28;20593;-88
2022/03/06 01:49:55;;;;;;;22.57;11.47;;;;;;;;;;5043754;28;20672;-88
2022/03/06 01:53:01;;;;;;;23.57;12.37;;;;;;;;;;5038431;28;20609;-88
2022/03/06 01:56:05;;;;;;;21.90;12.40;;;;;;;;;;5032304;28;20645;-88
2022/03/06 01:59:10;;;;;;;20.23;10.87;;;;;;;;;;5042054;28;20618;-88
2022/03/06 02:02:14;;;;;;;20.90;11.43;;;;;;;;;;5018270;28;20618;-88
2022/03/06 02:05:19;;;;;;;18.20;10.37;;;;;;;;;;5019059;28;20973;-88
2022/03/06 02:08:23;;;;;;;18.60;10.13;;;;;;;;;;5026431;28;20600;-88
2022/03/06 02:11:28;;;;;;;23.37;11.60;;;;;;;;;;5061201;28;20656;-88
2022/03/06 02:14:32;;;;;;;18.47;10.77;;;;;;;;;;5037791;28;21284;-88
2022/03/06 02:17:37;;;;;;;20.93;10.93;;;;;;;;;;5047926;28;21158;-88
2022/03/06 02:20:42;;;;;;;23.10;11.53;;;;;;;;;;5038426;28;20545;-88
2022/03/06 02:23:47;;;;;;;20.73;11.00;;;;;;;;;;5038170;28;21126;-88
2022/03/06 02:26:52;;;;;;;18.47;10.17;;;;;;;;;;5048797;28;20945;-88
2022/03/06 02:29:56;;;;;;;19.77;10.90;;;;;;;;;;5049228;28;20542;-88
2022/03/06 02:33:02;;;;;;;19.87;11.03;;;;;;;;;;5030529;28;20602;-88
2022/03/06 02:36:06;;;;;;;17.60;10.63;;;;;;;;;;5030682;28;20728;-88
2022/03/06 02:39:10;;;;;;;16.00;10.23;;;;;;;;;;5018440;28;20542;-88
2022/03/06 02:42:26;;;;;;;20.07;10.73;;;;;;;;;;5018142;28;20601;-88
2022/03/06 02:45:30;;;;;;;22.73;11.10;;;;;;;;;;5042757;28;21004;-88
2022/03/06 02:48:34;;;;;;;21.30;11.13;;;;;;;;;;5032890;28;20601;-88
2022/03/06 02:51:44;;;;;;;19.73;10.77;;;;;;;;;;5026358;28;20601;-88
2022/03/06 02:54:48;;;;;;;21.87;11.47;;;;;;;;;;5044974;28;20680;-88
2022/03/06 02:57:54;;;;;;;22.40;11.77;;;;;;;;;;5041280;28;20593;-88
2022/03/06 03:00:58;;;;;;;18.13;10.33;;;;;;;;;;5021668;28;20537;-89
2022/03/06 03:04:02;;;;;;;20.67;10.00;;;;;;;;;;5033327;28;20538;-88
2022/03/06 03:07:07;;;;;;;21.63;10.30;;;;;;;;;;5033663;28;20605;-88
2022/03/06 03:10:18;;;;;;;18.80;10.73;;;;;;;;;;5051479;28;20593;-88
2022/03/06 03:13:22;;;;;;;22.23;11.50;;;;;;;;;;5052456;28;20608;-88
2022/03/06 03:16:26;;;;;;;20.80;11.53;;;;;;;;;;5021590;28;20637;-88
2022/03/06 03:19:31;;;;;;;22.90;11.83;;;;;;;;;;5032715;28;21093;-88
2022/03/06 03:22:35;;;;;;;21.67;11.47;;;;;;;;;;5032546;28;20922;-88
2022/03/06 03:25:39;;;;;;;20.20;11.20;;;;;;;;;;5036144;28;20641;-89
2022/03/06 03:28:44;;;;;;;22.13;10.27;;;;;;;;;;5021106;28;20554;-88
2022/03/06 03:31:48;;;;;;;22.87;12.17;;;;;;;;;;5021038;28;20961;-88
2022/03/06 03:34:52;;;;;;;19.60;11.53;;;;;;;;;;5022069;28;20661;-88
2022/03/06 03:37:56;;;;;;;21.20;11.20;;;;;;;;;;5020776;28;20609;-88
2022/03/06 03:41:01;;;;;;;18.30;10.17;;;;;;;;;;5032397;28;20624;-87
2022/03/06 03:44:05;;;;;;;21.40;11.87;;;;;;;;;;5043112;28;20577;-88
2022/03/06 03:47:09;;;;;;;18.37;11.00;;;;;;;;;;5043606;28;20546;-88
2022/03/06 03:50:13;;;;;;;25.30;11.47;;;;;;;;;;5020993;28;20597;-88
2022/03/06 03:53:18;;;;;;;24.80;11.37;;;;;;;;;;5030124;28;20947;-88
2022/03/06 03:56:22;;;;;;;23.20;11.47;;;;;;;;;;5037798;28;20732;-88
2022/03/06 03:59:26;;;;;;;22.15;11.50;;;;;;;;;;5039904;28;20549;-88
2022/03/06 04:02:30;;;;;;;22.27;11.23;;;;;;;;;;5063227;28;20179;-88
2022/03/06 04:05:34;;;;;;;20.53;10.70;;;;;;;;;;5049726;28;20652;-88
2022/03/06 04:08:38;;;;;;;19.27;11.00;;;;;;;;;;5063036;28;20545;-89
2022/03/06 04:11:42;;;;;;;17.63;10.47;;;;;;;;;;5038434;28;20601;-88
2022/03/06 04:14:46;;;;;;;21.30;11.00;;;;;;;;;;5046835;28;21281;-88
2022/03/06 04:17:51;;;;;;;22.33;11.90;;;;;;;;;;5063854;28;20952;-88
2022/03/06 04:20:55;;;;;;;21.23;11.93;;;;;;;;;;5063101;28;21107;-88
2022/03/06 04:23:59;;;;;;;24.13;12.13;;;;;;;;;;5051417;28;20541;-88
2022/03/06 04:27:03;;;;;;;22.60;12.07;;;;;;;;;;5031507;28;20550;-88
2022/03/06 04:30:09;;;;;;;20.97;12.03;;;;;;;;;;5031533;28;20565;-88
2022/03/06 04:33:13;;;;;;;21.17;11.03;;;;;;;;;;5020313;28;20594;-88
2022/03/06 04:36:18;;;;;;;20.30;11.37;;;;;;;;;;5058617;28;20720;-88
2022/03/06 04:39:22;;;;;;;21.20;10.77;;;;;;;;;;5038086;28;20598;-88
2022/03/06 04:42:26;;;;;;;20.57;10.83;;;;;;;;;;5042283;28;20558;-88
2022/03/06 04:45:30;;;;;;;20.57;11.30;;;;;;;;;;5029068;28;20664;-88
2022/03/06 04:48:34;;;;;;;21.43;10.77;;;;;;;;;;5050450;28;20624;-88
2022/03/06 04:51:38;;;;;;;21.67;11.20;;;;;;;;;;5039571;28;20896;-88
2022/03/06 04:54:42;;;;;;;19.70;11.47;;;;;;;;;;5050044;28;20676;-88
2022/03/06 04:57:46;;;;;;;20.10;10.73;;;;;;;;;;5036153;28;20964;-88
2022/03/06 05:00:51;;;;;;;20.17;11.33;;;;;;;;;;5019640;28;20546;-88
2022/03/06 05:03:56;;;;;;;17.13;9.80;;;;;;;;;;5048250;28;20624;-88
2022/03/06 05:07:01;;;;;;;26.43;12.87;;;;;;;;;;5019512;28;20516;-88
2022/03/06 05:10:09;;;;;;;18.93;10.27;;;;;;;;;;5030957;28;20558;-88
2022/03/06 05:13:13;;;;;;;20.07;11.73;;;;;;;;;;5030315;28;20562;-88
2022/03/06 05:16:17;;;;;;;22.20;12.43;;;;;;;;;;5030442;28;20645;-89
2022/03/06 05:19:21;;;;;;;22.13;12.10;;;;;;;;;;5019376;28;20191;-88
2022/03/06 05:22:26;;;;;;;20.50;11.90;;;;;;;;;;5030503;28;20179;-88
2022/03/06 05:25:30;;;;;;;19.80;10.97;;;;;;;;;;5030957;28;20218;-88
2022/03/06 05:28:35;;;;;;;21.97;11.17;;;;;;;;;;5038597;28;21126;-88
2022/03/06 05:31:39;;;;;;;21.48;11.32;;;;;;;;;;5042391;28;20604;-88
2022/03/06 05:34:43;;;;;;;19.63;10.95;;;;;;;;;;5026071;28;20225;-88
2022/03/06 05:37:47;;;;;;;21.13;11.95;;;;;;;;;;5040447;28;20206;-88
2022/03/06 05:40:51;;;;;;;18.25;10.98;;;;;;;;;;5040318;28;20194;-88
2022/03/06 05:43:54;;;;;;;21.15;11.25;;;;;;;;;;5051098;28;20537;-88
2022/03/06 05:46:59;;;;;;;22.13;11.30;;;;;;;;;;5052289;28;20178;-87
2022/03/06 05:50:05;;;;;;;25.63;13.90;;;;;;;;;;5040377;28;20545;-87
2022/03/06 05:53:09;;;;;;;22.25;11.50;;;;;;;;;;5020872;28;20207;-88
2022/03/06 05:56:14;;;;;;;23.88;12.60;;;;;;;;;;5039765;28;20214;-88
2022/03/06 05:59:18;;;;;;;24.67;13.05;;;;;;;;;;5032610;28;20255;-87
2022/03/06 06:02:22;;;;;;;23.57;12.43;;;;;;;;;;5031710;28;20191;-88
2022/03/06 06:05:26;;;;;;;23.60;11.52;;;;;;;;;;5041255;28;20657;-88
2022/03/06 06:08:30;;;;;;;19.60;10.75;;;;;;;;;;5029890;28;20673;-88
2022/03/06 06:11:35;;;;;;;20.48;10.68;;;;;;;;;;5031889;28;20250;-88
2022/03/06 06:14:38;;;;;;;20.17;11.90;;;;;;;;;;5030046;28;20232;-88
2022/03/06 06:17:43;;;;;;;16.80;9.97;;;;;;;;;;5019004;28;20199;-87
2022/03/06 06:20:47;;;;;;;19.58;11.20;;;;;;;;;;5032281;28;20610;-88
2022/03/06 06:23:51;;;;;;;20.02;11.88;;;;;;;;;;5052967;28;20194;-88
2022/03/06 06:26:55;;;;;;;19.47;10.60;;;;;;;;;;5053964;28;20179;-88
2022/03/06 06:29:59;;;;;;;18.73;10.47;;;;;;;;;;5053595;28;20557;-88
2022/03/06 06:33:03;;;;;;;19.67;11.38;;;;;;;;;;5025269;28;20593;-88
2022/03/06 06:36:07;;;;;;;23.97;11.90;;;;;;;;;;5023002;28;20226;-89
2022/03/06 06:39:12;;;;;;;23.53;12.27;;;;;;;;;;5033409;28;21104;-88
2022/03/06 06:42:16;;;;;;;23.70;12.30;;;;;;;;;;5033441;28;20550;-89
2022/03/06 06:45:20;;;;;;;20.40;11.37;;;;;;;;;;5034234;28;20716;-88
2022/03/06 06:48:24;;;;;;;19.30;11.87;;;;;;;;;;5022475;28;20617;-88
2022/03/06 06:51:30;;;;;;;21.27;11.63;;;;;;;;;;5025174;28;20613;-88
2022/03/06 06:54:34;;;;;;;21.20;11.13;;;;;;;;;;5056631;28;20668;-88
2022/03/06 06:57:38;;;;;;;21.53;12.20;;;;;;;;;;5028115;28;20625;-87
2022/03/06 07:00:42;;;;;;;20.43;10.97;;;;;;;;;;5026549;28;20613;-88
2022/03/06 07:03:47;;;;;;;19.03;11.67;;;;;;;;;;5047527;28;20554;-88
2022/03/06 07:06:51;;;;;;;20.73;11.73;;;;;;;;;;5037195;28;20949;-88
2022/03/06 07:09:55;;;;;;;17.97;11.20;;;;;;;;;;5029593;28;20632;-88
2022/03/06 07:12:59;;;;;;;15.93;10.50;;;;;;;;;;5043392;28;20601;-87
2022/03/06 07:16:03;;;;;;;20.60;11.37;;;;;;;;;;5041096;28;20657;-89
2022/03/06 07:19:07;;;;;;;20.80;11.63;;;;;;;;;;5064151;28;20585;-88
2022/03/06 07:22:12;;;;;;;17.53;11.10;;;;;;;;;;5036777;28;20586;-89
2022/03/06 07:25:16;;;;;;;20.27;12.17;;;;;;;;;;5024251;28;21250;-90
2022/03/06 07:28:20;;;;;;;24.00;12.90;;;;;;;;;;5032450;28;20551;-90
2022/03/06 07:31:24;;;;;;;21.87;13.20;;;;;;;;;;5031286;28;20543;-88
2022/03/06 07:34:28;;;;;;;19.33;12.50;;;;;;;;;;5033437;28;20586;-90
2022/03/06 07:37:33;;;;;;;18.00;10.97;;;;;;;;;;5021107;28;20643;-90
2022/03/06 07:40:37;;;;;;;18.90;11.27;;;;;;;;;;5021398;28;20531;-90
2022/03/06 07:43:41;;;;;;;17.87;10.23;;;;;;;;;;5031347;28;20582;-90
2022/03/06 07:46:45;;;;;;;16.63;11.63;;;;;;;;;;5050293;28;20948;-91
2022/03/06 07:49:49;;;;;;;19.27;12.03;;;;;;;;;;5042529;28;20895;-88
2022/03/06 07:52:56;;;;;;;16.43;10.87;;;;;;;;;;5040175;28;20582;-90
2022/03/06 07:56:00;;;;;;;15.37;9.63;;;;;;;;;;5024428;28;20650;-87
2022/03/06 07:59:04;;;;;;;16.03;9.97;;;;;;;;;;5045715;28;20585;-85
2022/03/06 08:02:08;;;;;;;15.73;10.13;;;;;;;;;;5053072;28;20586;-87
2022/03/06 08:05:12;;;;;;;15.10;9.80;;;;;;;;;;5032583;28;20634;-86
2022/03/06 08:08:16;;;;;;;14.53;9.10;;;;;;;;;;5048228;28;20551;-86
2022/03/06 08:11:21;;;;;;;21.57;10.43;;;;;;;;;;5043670;28;20538;-86
2022/03/06 08:14:25;;;;;;;18.77;9.50;;;;;;;;;;5042571;28;20598;-86
2022/03/06 08:17:29;;;;;;;16.50;9.73;;;;;;;;;;5036128;28;20583;-86
2022/03/06 08:20:33;;;;;;;18.40;9.87;;;;;;;;;;5032048;28;20583;-86
2022/03/06 08:23:37;;;;;;;18.97;9.80;;;;;;;;;;5058890;28;21135;-86
2022/03/06 08:26:42;;;;;;;16.10;9.50;;;;;;;;;;5041013;28;20571;-85
2022/03/06 08:29:46;;;;;;;15.50;9.57;;;;;;;;;;5025850;28;20575;-86
2022/03/06 08:32:50;;;;;;;16.30;9.80;;;;;;;;;;5029551;28;20582;-85
2022/03/06 08:35:54;;;;;;;15.23;9.60;;;;;;;;;;5029097;28;20653;-83
2022/03/06 08:38:58;;;;;;;18.47;9.90;;;;;;;;;;5042931;28;21151;-84
2022/03/06 08:42:02;;;;;;;17.40;9.43;;;;;;;;;;5040823;28;20626;-84
2022/03/06 08:45:07;;;;;;;16.73;9.67;;;;;;;;;;5026509;28;20993;-84
2022/03/06 08:48:12;;;;;;;15.77;9.67;;;;;;;;;;5049925;28;20597;-84
2022/03/06 08:51:16;;;;;;;16.60;9.37;;;;;;;;;;5057972;28;20579;-85
2022/03/06 08:54:21;;;;;;;17.07;9.67;;;;;;;;;;5037196;28;20589;-85
2022/03/06 08:57:25;;;;;;;12.80;8.90;;;;;;;;;;5037842;28;20583;-85
2022/03/06 09:00:29;;;;;;;15.20;8.77;;;;;;;;;;5021063;28;20603;-85
2022/03/06 09:03:33;;;;;;;15.57;9.33;;;;;;;;;;5043671;28;20621;-86
2022/03/06 09:06:39;;;;;;;15.53;9.83;;;;;;;;;;5043339;28;20581;-85
2022/03/06 09:09:43;;;;;;;19.23;10.60;;;;;;;;;;5043511;28;20583;-86
2022/03/06 09:12:47;;;;;;;17.80;9.83;;;;;;;;;;5023590;28;20589;-84
2022/03/06 09:15:51;;;;;;;18.07;10.23;;;;;;;;;;5038704;28;21009;-83
2022/03/06 09:18:55;;;;;;;15.30;9.23;;;;;;;;;;5051050;28;20543;-83
2022/03/06 09:21:59;;;;;;;18.37;10.07;;;;;;;;;;5039529;28;21072;-84
2022/03/06 09:25:05;;;;;;;15.20;10.17;;;;;;;;;;5042292;28;20627;-84
2022/03/06 09:28:09;;;;;;;15.77;9.40;;;;;;;;;;5023455;28;20646;-84
2022/03/06 09:31:13;;;;;;;15.70;9.67;;;;;;;;;;5037528;28;20586;-86
2022/03/06 09:34:17;;;;;;;15.70;9.63;;;;;;;;;;5049560;28;20184;-84
2022/03/06 09:37:20;;;;;;;14.87;9.17;;;;;;;;;;5050466;28;20617;-84
2022/03/06 09:40:25;;;;;;;14.57;8.90;;;;;;;;;;5050317;28;20886;-84
2022/03/06 09:43:30;;;;;;;12.97;8.83;;;;;;;;;;5030392;28;20666;-85
2022/03/06 09:46:35;;;;;;;15.20;8.90;;;;;;;;;;5029449;28;20661;-85
2022/03/06 09:49:43;;;;;;;14.90;8.87;;;;;;;;;;5040044;28;20200;-84
2022/03/06 09:52:47;;;;;;;12.43;8.47;;;;;;;;;;5059565;28;20184;-85
2022/03/06 09:55:51;;;;;;;14.37;8.87;;;;;;;;;;5035243;28;20223;-84
2022/03/06 09:58:55;;;;;;;14.30;8.63;;;;;;;;;;5044202;28;20653;-84
2022/03/06 10:02:06;;;;;;;12.20;8.40;;;;;;;;;;5053640;28;20187;-84
2022/03/06 10:05:25;;;;;;;14.73;8.63;;;;;;;;;;5053540;28;20212;-85
2022/03/06 10:08:29;;;;;;;12.93;8.07;;;;;;;;;;5039691;28;20187;-88
2022/03/06 10:11:33;;;;;;;15.13;8.10;;;;;;;;;;5047999;28;20188;-88
2022/03/06 10:14:41;;;;;;;12.97;8.43;;;;;;;;;;5049566;28;20214;-88
2022/03/06 10:17:46;;;;;;;13.23;7.57;;;;;;;;;;5022512;28;20196;-88
2022/03/06 10:20:50;;;;;;;12.47;8.03;;;;;;;;;;5034071;28;20195;-88
2022/03/06 10:24:00;;;;;;;14.67;8.77;;;;;;;;;;5049086;28;20531;-87
2022/03/06 10:27:04;;;;;;;13.00;8.37;;;;;;;;;;5040782;28;20192;-88
2022/03/06 10:30:22;;;;;;;13.20;8.73;;;;;;;;;;5029776;28;20180;-88
2022/03/06 10:33:26;;;;;;;13.17;7.93;;;;;;;;;;5038292;28;20196;-87
2022/03/06 10:36:44;;;;;;;13.30;8.87;;;;;;;;;;5060586;28;20227;-87
2022/03/06 10:39:48;;;;;;;13.07;8.57;;;;;;;;;;5046159;28;20193;-87
2022/03/06 10:42:55;;;;;;;12.23;8.20;;;;;;;;;;5029838;28;20204;-88
2022/03/06 10:46:08;;;;;;;14.80;8.17;;;;;;;;;;5029353;28;20216;-88
2022/03/06 10:49:17;;;;;;;13.67;7.90;;;;;;;;;;5018615;28;20192;-88
2022/03/06 10:52:22;;;;;;;12.47;8.30;;;;;;;;;;5025628;28;20184;-87
2022/03/06 10:55:35;;;;;;;12.60;8.57;;;;;;;;;;5018367;28;20682;-87
2022/03/06 10:58:45;;;;;;;13.83;8.67;;;;;;;;;;5030097;28;20199;-87
2022/03/06 11:01:49;;;;;;;12.73;7.83;;;;;;;;;;5049452;28;20180;-88
2022/03/06 11:04:56;;;;;;;12.63;7.83;;;;;;;;;;5045738;28;20219;-87
2022/03/06 11:08:01;;;;;;;10.40;7.30;;;;;;;;;;5040529;28;20191;-88
2022/03/06 11:11:07;;;;;;;11.27;7.40;;;;;;;;;;5021846;28;20651;-88
2022/03/06 11:14:12;;;;;;;12.97;8.03;;;;;;;;;;5032922;28;20543;-88
2022/03/06 11:17:17;;;;;;;12.30;7.60;;;;;;;;;;5021897;28;20207;-88
2022/03/06 11:20:21;;;;;;;12.90;8.70;;;;;;;;;;5050782;28;20542;-88
2022/03/06 11:23:40;;;;;;;13.33;8.33;;;;;;;;;;5032658;28;20184;-87
2022/03/06 11:27:20;;;;;;;14.23;8.27;;;;;;;;;;5023956;28;20188;-87
2022/03/06 11:30:24;;;;;;;14.93;9.23;;;;;;;;;;5032908;28;21155;-88
2022/03/06 11:33:29;;;;;;;15.00;8.30;;;;;;;;;;5032747;28;20531;-88
2022/03/06 11:37:03;;;;;;;12.90;8.60;;;;;;;;;;5021282;28;20654;-88
2022/03/06 11:40:33;;;;;;;20.93;12.80;;;;;;;;;;5021977;28;20184;-87
2022/03/06 11:43:43;;;;;;;12.73;7.97;;;;;;;;;;5040905;28;20184;-87
2022/03/06 11:46:48;;;;;;;13.50;8.20;;;;;;;;;;5025908;28;20638;-88
2022/03/06 11:49:54;;;;;;;10.33;7.43;;;;;;;;;;5041155;28;20179;-87
2022/03/06 11:53:00;;;;;;;15.10;9.47;;;;;;;;;;5039807;28;20191;-88
2022/03/06 11:56:32;;;;;;;10.93;7.73;;;;;;;;;;5040967;28;20215;-88
2022/03/06 11:59:37;;;;;;;13.43;8.13;;;;;;;;;;5043371;28;20184;-87
2022/03/06 12:02:49;;;;;;;12.47;8.37;;;;;;;;;;5022549;28;20627;-87
2022/03/06 12:05:56;;;;;;;11.07;7.00;;;;;;;;;;5051982;28;20685;-88
2022/03/06 12:09:00;;;;;;;11.40;8.00;;;;;;;;;;5040510;28;20183;-86
2022/03/06 12:12:10;;;;;;;10.87;7.63;;;;;;;;;;5050176;28;20183;-87
2022/03/06 12:15:17;;;;;;;11.23;8.10;;;;;;;;;;5020452;28;20220;-87
2022/03/06 12:18:21;;;;;;;13.77;8.47;;;;;;;;;;5019539;28;20180;-87
2022/03/06 12:21:25;;;;;;;12.10;8.27;;;;;;;;;;5031683;28;20176;-88
2022/03/06 12:24:32;;;;;;;17.70;9.03;;;;;;;;;;5035734;28;20183;-87
2022/03/06 12:27:38;;;;;;;13.70;8.80;;;;;;;;;;5039825;28;20195;-88
2022/03/06 12:30:42;;;;;;;12.43;9.00;;;;;;;;;;5033052;28;20199;-88
2022/03/06 12:33:49;;;;;;;14.57;9.53;;;;;;;;;;5041431;28;20659;-88
2022/03/06 12:36:54;;;;;;;13.00;8.80;;;;;;;;;;5020943;28;20208;-87
2022/03/06 12:40:00;;;;;;;17.83;9.40;;;;;;;;;;5032411;28;20180;-87
2022/03/06 12:43:07;;;;;;;13.00;8.23;;;;;;;;;;5024436;28;20222;-88
2022/03/06 12:46:14;;;;;;;14.70;9.30;;;;;;;;;;5023771;23;20234;-86
2022/03/06 12:49:20;;;;;;;16.23;10.53;;;;;;;;;;4970935;28;20199;-83
2022/03/06 12:52:29;;;;;;;12.77;8.77;;;;;;;;;;4981849;28;20178;-83
2022/03/06 12:55:34;;;;;;;11.60;8.50;;;;;;;;;;4969984;28;20210;-83
2022/03/06 12:58:41;;;;;;;19.60;8.93;;;;;;;;;;4969728;28;20182;-83
2022/03/06 13:01:47;;;;;;;12.33;8.67;;;;;;;;;;4970242;28;20208;-83
2022/03/06 13:04:53;;;;;;;11.23;8.13;;;;;;;;;;4971725;28;20186;-83
2022/03/06 13:07:58;;;;;;;12.30;8.40;;;;;;;;;;4992747;28;20660;-83
2022/03/06 13:11:09;;;;;;;15.73;8.23;;;;;;;;;;4981279;28;20198;-83
2022/03/06 13:14:15;;;;;;;14.47;9.10;;;;;;;;;;4971278;28;20186;-84
2022/03/06 13:17:20;;;;;;;14.23;9.10;;;;;;;;;;4972694;28;20202;-83
2022/03/06 13:20:29;;;;;;;14.67;9.60;;;;;;;;;;4982996;28;20641;-83
2022/03/06 13:23:33;;;;;;;15.53;9.60;;;;;;;;;;4971017;28;20669;-83
2022/03/06 13:26:37;;;;;;;16.73;10.90;;;;;;;;;;4971137;28;20214;-83
2022/03/06 13:29:41;;;;;;;13.80;9.00;;;;;;;;;;4970140;28;20182;-83
2022/03/06 13:32:52;;;;;;;14.43;8.77;;;;;;;;;;4984564;28;20518;-83
2022/03/06 13:35:56;;;;;;;14.03;8.30;;;;;;;;;;4973259;28;20218;-83
2022/03/06 13:39:02;;;;;;;14.10;9.40;;;;;;;;;;4972809;28;20194;-83
2022/03/06 13:42:06;;;;;;;15.43;8.50;;;;;;;;;;4981462;28;20182;-83
2022/03/06 13:45:13;;;;;;;14.50;9.00;;;;;;;;;;4973588;28;20696;-83
2022/03/06 13:48:17;;;;;;;15.17;8.40;;;;;;;;;;4971486;28;20175;-83
2022/03/06 13:51:24;;;;;;;13.23;8.37;;;;;;;;;;4985119;28;20182;-83
2022/03/06 13:54:32;;;;;;;14.40;9.40;;;;;;;;;;4981858;28;20175;-84
2022/03/06 13:57:37;;;;;;;11.50;8.43;;;;;;;;;;4982292;28;20235;-83
2022/03/06 14:00:50;;;;;;;12.17;8.70;;;;;;;;;;4982121;28;20187;-83
2022/03/06 14:03:59;;;;;;;14.60;9.37;;;;;;;;;;4970808;28;20179;-83
2022/03/06 14:07:06;;;;;;;14.97;8.93;;;;;;;;;;4989949;28;20190;-84
2022/03/06 14:10:11;;;;;;;14.20;9.63;;;;;;;;;;4981074;28;20194;-85
2022/03/06 14:13:39;;;;;;;15.60;9.90;;;;;;;;;;4983608;28;20567;-85
2022/03/06 14:16:44;;;;;;;14.57;9.20;;;;;;;;;;4970762;28;20684;-85
2022/03/06 14:20:02;;;;;;;13.07;9.30;;;;;;;;;;4976177;28;20183;-85
2022/03/06 14:23:06;;;;;;;14.27;8.97;;;;;;;;;;4972758;28;20195;-85
2022/03/06 14:26:13;;;;;;;16.93;10.00;;;;;;;;;;4962732;28;20222;-86
2022/03/06 14:29:18;;;;;;;14.03;9.30;;;;;;;;;;4969120;28;20187;-86
2022/03/06 14:32:23;;;;;;;20.33;12.47;;;;;;;;;;4953305;28;20179;-85
2022/03/06 14:35:27;;;;;;;17.07;10.50;;;;;;;;;;4964833;28;20222;-86
2022/03/06 14:38:31;;;;;;;14.20;9.87;;;;;;;;;;4978736;28;20207;-84
2022/03/06 14:41:36;;;;;;;14.60;9.67;;;;;;;;;;4971181;28;20186;-83
2022/03/06 14:44:40;;;;;;;14.40;9.80;;;;;;;;;;4990957;28;20202;-83
2022/03/06 14:47:44;;;;;;;18.67;11.10;;;;;;;;;;4994580;28;20652;-83
2022/03/06 14:50:49;;;;;;;13.73;9.80;;;;;;;;;;5002782;28;20190;-83
2022/03/06 14:53:54;;;;;;;14.80;10.03;;;;;;;;;;4974784;28;20582;-83
2022/03/06 14:56:59;;;;;;;13.97;9.67;;;;;;;;;;4975529;28;20225;-83
2022/03/06 15:00:06;;;;;;;13.03;8.77;;;;;;;;;;4973263;28;20182;-83
2022/03/06 15:03:10;;;;;;;13.07;8.83;;;;;;;;;;4954751;28;20554;-84
2022/03/06 15:06:14;;;;;;;12.80;9.03;;;;;;;;;;4973212;28;20218;-82
2022/03/06 15:09:19;;;;;;;12.93;8.87;;;;;;;;;;4985270;28;20541;-84
2022/03/06 15:12:24;;;;;;;12.87;8.93;;;;;;;;;;4954862;28;20191;-83
2022/03/06 15:15:28;;;;;;;18.13;12.23;;;;;;;;;;4975132;28;20626;-83
2022/03/06 15:18:32;;;;;;;19.37;12.93;;;;;;;;;;4972969;28;20218;-83
2022/03/06 15:21:37;;;;;;;15.20;10.80;;;;;;;;;;4974588;28;20636;-82
2022/03/06 15:24:41;;;;;;;14.00;9.97;;;;;;;;;;4971000;28;20542;-83
2022/03/06 15:27:46;;;;;;;13.80;8.70;;;;;;;;;;4962775;28;20597;-82
2022/03/06 15:30:50;;;;;;;14.07;9.83;;;;;;;;;;4987708;28;20586;-82
2022/03/06 15:33:56;;;;;;;15.33;9.37;;;;;;;;;;4981716;28;20585;-85
2022/03/06 15:37:00;;;;;;;15.33;9.53;;;;;;;;;;4963072;28;20646;-83
2022/03/06 15:40:06;;;;;;;14.60;8.63;;;;;;;;;;4973390;28;20594;-83
2022/03/06 15:43:11;;;;;;;13.80;9.27;;;;;;;;;;4970015;28;21169;-83
2022/03/06 15:46:15;;;;;;;13.33;8.83;;;;;;;;;;4966580;28;20660;-82
2022/03/06 15:49:19;;;;;;;17.43;8.97;;;;;;;;;;4963664;28;20582;-83
2022/03/06 15:52:24;;;;;;;16.27;8.27;;;;;;;;;;4952352;28;20551;-83
2022/03/06 15:55:28;;;;;;;13.47;8.57;;;;;;;;;;4956032;28;20613;-83
2022/03/06 15:58:33;;;;;;;14.43;9.23;;;;;;;;;;4960858;28;20625;-84
2022/03/06 16:01:37;;;;;;;13.90;8.97;;;;;;;;;;4983183;28;20538;-82
2022/03/06 16:04:41;;;;;;;14.97;9.93;;;;;;;;;;4962501;28;20602;-83
2022/03/06 16:07:45;;;;;;;12.20;7.83;;;;;;;;;;4957052;28;20590;-84
2022/03/06 16:10:51;;;;;;;12.77;8.97;;;;;;;;;;4974092;28;20894;-83
2022/03/06 16:13:55;;;;;;;11.43;8.00;;;;;;;;;;4958560;28;20582;-84
2022/03/06 16:16:59;;;;;;;12.00;8.03;;;;;;;;;;4952902;28;20622;-83
2022/03/06 16:20:04;;;;;;;12.13;8.97;;;;;;;;;;4976622;28;20538;-83
2022/03/06 16:23:08;;;;;;;14.73;8.77;;;;;;;;;;4970546;28;20594;-84
2022/03/06 16:26:13;;;;;;;16.93;9.63;;;;;;;;;;4982123;28;20644;-84
2022/03/06 16:29:17;;;;;;;12.93;7.33;;;;;;;;;;5000003;28;20582;-84
2022/03/06 16:32:22;;;;;;;10.73;7.33;;;;;;;;;;4974062;28;20601;-84
2022/03/06 16:35:26;;;;;;;9.13;7.07;;;;;;;;;;4971878;28;20629;-84
2022/03/06 16:38:31;;;;;;;8.97;7.13;;;;;;;;;;4991153;28;20593;-84
2022/03/06 16:41:35;;;;;;;10.03;6.50;;;;;;;;;;4962912;28;20594;-84
2022/03/06 16:44:40;;;;;;;10.67;6.73;;;;;;;;;;4969320;28;20968;-84
2022/03/06 16:47:44;;;;;;;9.43;6.63;;;;;;;;;;4976896;28;20622;-83
2022/03/06 16:50:48;;;;;;;8.57;6.30;;;;;;;;;;4980917;28;20546;-84
2022/03/06 16:53:52;;;;;;;10.00;6.20;;;;;;;;;;4962706;28;20586;-83
2022/03/06 16:56:57;;;;;;;8.77;6.40;;;;;;;;;;4973308;28;20641;-83
2022/03/06 17:00:07;;;;;;;8.13;6.70;;;;;;;;;;4987202;28;20578;-83
2022/03/06 17:03:12;;;;;;;15.90;10.57;;;;;;;;;;4991947;28;20594;-84
2022/03/06 17:06:17;;;;;;;14.50;8.77;;;;;;;;;;4983397;28;21242;-84
2022/03/06 17:09:21;;;;;;;10.37;6.00;;;;;;;;;;4962586;28;20594;-84
2022/03/06 17:12:25;;;;;;;8.27;6.00;;;;;;;;;;4950647;28;20547;-84
2022/03/06 17:15:29;;;;;;;8.50;6.50;;;;;;;;;;4970131;28;20646;-85
2022/03/06 17:18:34;;;;;;;8.33;6.10;;;;;;;;;;4961173;28;21148;-84
2022/03/06 17:21:38;;;;;;;8.50;6.40;;;;;;;;;;4956032;28;20593;-85
2022/03/06 17:24:42;;;;;;;8.00;5.90;;;;;;;;;;4971641;28;20594;-84
2022/03/06 17:27:46;;;;;;;8.10;5.87;;;;;;;;;;4992469;28;20581;-84
2022/03/06 17:30:50;;;;;;;15.17;7.77;;;;;;;;;;4978321;28;21456;-84
2022/03/06 17:33:55;;;;;;;8.60;6.33;;;;;;;;;;4952389;28;20550;-84
2022/03/06 17:36:59;;;;;;;7.83;6.73;;;;;;;;;;4956957;28;21239;-85
2022/03/06 17:40:03;;;;;;;13.50;8.53;;;;;;;;;;4978205;28;20586;-85
2022/03/06 17:43:08;;;;;;;6.53;5.47;;;;;;;;;;4964154;28;20618;-84
2022/03/06 17:46:12;;;;;;;16.03;9.03;;;;;;;;;;4976677;28;20661;-85
2022/03/06 17:49:16;;;;;;;9.40;7.20;;;;;;;;;;4981092;28;20605;-85
2022/03/06 17:52:21;;;;;;;8.33;6.40;;;;;;;;;;4970756;28;20622;-83
2022/03/06 17:55:25;;;;;;;9.23;5.87;;;;;;;;;;4963303;28;20650;-85
2022/03/06 17:58:29;;;;;;;9.50;6.93;;;;;;;;;;4961510;28;20614;-85
2022/03/06 18:01:34;;;;;;;8.43;6.50;;;;;;;;;;4966248;28;20553;-84
2022/03/06 18:04:38;;;;;;;9.80;7.83;;;;;;;;;;4967627;28;20594;-84
2022/03/06 18:07:42;;;;;;;10.83;7.50;;;;;;;;;;4967797;28;20593;-85